sensor_id;sensor_type;location;lat;lon;timestamp;temperature;humidity
75262;DHT22;63859;51.064;4.580;2022-12-29T00:01:40;11.30;99.90
75262;DHT22;63859;51.064;4.580;2022-12-29T00:04:06;11.40;99.90
75262;DHT22;63859;51.064;4.580;2022-12-29T00:06:32;11.50;99.90
75262;DHT22;63859;51.064;4.580;2022-12-29T00:08:58;11.50;99.90
75262;DHT22;63859;51.064;4.580;2022-12-29T00:11:25;11.50;99.90
75262;DHT22;63859;51.064;4.580;2022-12-29T00:13:52;11.50;99.90
75262;DHT22;63859;51.064;4.580;2022-12-29T00:16:37;11.50;99.90
75262;DHT22;63859;51.064;4.580;2022-12-29T00:19:03;11.50;99.90
75262;DHT22;63859;51.064;4.580;2022-12-29T00:21:29;11.50;99.90
75262;DHT22;63859;51.064;4.580;2022-12-29T00:24:20;11.50;99.90
75262;DHT22;63859;51.064;4.580;2022-12-29T00:27:12;11.50;99.90
75262;DHT22;63859;51.064;4.580;2022-12-29T00:29:56;11.60;99.90
75262;DHT22;63859;51.064;4.580;2022-12-29T00:32:41;11.60;99.90
75262;DHT22;63859;51.064;4.580;2022-12-29T00:35:31;11.60;99.90
75262;DHT22;63859;51.064;4.580;2022-12-29T00:38:05;11.60;99.90
75262;DHT22;63859;51.064;4.580;2022-12-29T00:40:50;11.60;99.90
75262;DHT22;63859;51.064;4.580;2022-12-29T00:43:34;11.70;99.90
75262;DHT22;63859;51.064;4.580;2022-12-29T00:46:18;11.70;99.90
75262;DHT22;63859;51.064;4.580;2022-12-29T00:48:44;11.70;99.90
75262;DHT22;63859;51.064;4.580;2022-12-29T00:51:28;11.70;99.90
75262;DHT22;63859;51.064;4.580;2022-12-29T00:53:53;11.70;99.90
75262;DHT22;63859;51.064;4.580;2022-12-29T00:56:19;11.80;99.90
75262;DHT22;63859;51.064;4.580;2022-12-29T00:58:45;11.80;99.90
75262;DHT22;63859;51.064;4.580;2022-12-29T01:01:10;11.80;99.90
75262;DHT22;63859;51.064;4.580;2022-12-29T01:03:37;11.90;99.90
75262;DHT22;63859;51.064;4.580;2022-12-29T01:06:05;11.90;99.90
75262;DHT22;63859;51.064;4.580;2022-12-29T01:08:31;11.90;99.90
75262;DHT22;63859;51.064;4.580;2022-12-29T01:11:04;12.00;99.90
75262;DHT22;63859;51.064;4.580;2022-12-29T01:13:29;11.90;99.90
75262;DHT22;63859;51.064;4.580;2022-12-29T01:15:56;11.90;99.90
75262;DHT22;63859;51.064;4.580;2022-12-29T01:18:22;11.90;99.90
75262;DHT22;63859;51.064;4.580;2022-12-29T01:20:48;11.90;99.90
75262;DHT22;63859;51.064;4.580;2022-12-29T01:23:14;12.00;99.90
75262;DHT22;63859;51.064;4.580;2022-12-29T01:25:40;11.90;99.90
75262;DHT22;63859;51.064;4.580;2022-12-29T01:28:05;11.90;99.90
75262;DHT22;63859;51.064;4.580;2022-12-29T01:30:34;11.90;99.90
75262;DHT22;63859;51.064;4.580;2022-12-29T01:33:00;11.80;99.90
75262;DHT22;63859;51.064;4.580;2022-12-29T01:35:26;11.80;99.90
75262;DHT22;63859;51.064;4.580;2022-12-29T01:37:52;11.80;99.90
75262;DHT22;63859;51.064;4.580;2022-12-29T01:40:18;11.80;99.90
75262;DHT22;63859;51.064;4.580;2022-12-29T01:42:43;11.80;99.90
75262;DHT22;63859;51.064;4.580;2022-12-29T01:45:12;11.80;99.90
75262;DHT22;63859;51.064;4.580;2022-12-29T01:47:46;11.80;99.90
75262;DHT22;63859;51.064;4.580;2022-12-29T01:50:20;11.80;99.90
75262;DHT22;63859;51.064;4.580;2022-12-29T01:53:08;11.80;99.90
75262;DHT22;63859;51.064;4.580;2022-12-29T01:55:42;11.70;99.90
75262;DHT22;63859;51.064;4.580;2022-12-29T01:58:09;11.60;99.90
75262;DHT22;63859;51.064;4.580;2022-12-29T02:00:37;11.60;99.90
75262;DHT22;63859;51.064;4.580;2022-12-29T02:03:03;11.50;99.90
75262;DHT22;63859;51.064;4.580;2022-12-29T02:07:57;11.50;99.90
75262;DHT22;63859;51.064;4.580;2022-12-29T02:10:26;11.40;99.90
75262;DHT22;63859;51.064;4.580;2022-12-29T02:12:53;11.40;99.90
75262;DHT22;63859;51.064;4.580;2022-12-29T02:15:33;11.40;99.90
75262;DHT22;63859;51.064;4.580;2022-12-29T02:18:28;11.30;99.90
75262;DHT22;63859;51.064;4.580;2022-12-29T02:26:43;11.30;99.90
75262;DHT22;63859;51.064;4.580;2022-12-29T02:32:32;11.20;99.90
75262;DHT22;63859;51.064;4.580;2022-12-29T02:43:33;11.00;99.90
75262;DHT22;63859;51.064;4.580;2022-12-29T02:46:21;11.00;99.90
75262;DHT22;63859;51.064;4.580;2022-12-29T02:49:04;10.90;99.90
75262;DHT22;63859;51.064;4.580;2022-12-29T02:51:55;10.80;99.90
75262;DHT22;63859;51.064;4.580;2022-12-29T02:54:25;10.80;99.90
75262;DHT22;63859;51.064;4.580;2022-12-29T02:59:51;10.70;99.90
75262;DHT22;63859;51.064;4.580;2022-12-29T03:11:08;10.60;99.90
75262;DHT22;63859;51.064;4.580;2022-12-29T03:14:16;10.60;99.90
75262;DHT22;63859;51.064;4.580;2022-12-29T03:17:09;10.60;99.90
75262;DHT22;63859;51.064;4.580;2022-12-29T03:19:41;10.50;99.90
75262;DHT22;63859;51.064;4.580;2022-12-29T03:22:21;10.50;99.90
75262;DHT22;63859;51.064;4.580;2022-12-29T03:24:55;10.50;99.90
75262;DHT22;63859;51.064;4.580;2022-12-29T03:27:32;10.50;99.90
75262;DHT22;63859;51.064;4.580;2022-12-29T03:30:03;10.50;99.90
75262;DHT22;63859;51.064;4.580;2022-12-29T03:32:54;10.50;99.90
75262;DHT22;63859;51.064;4.580;2022-12-29T03:35:22;10.40;99.90
75262;DHT22;63859;51.064;4.580;2022-12-29T03:37:55;10.50;99.90
75262;DHT22;63859;51.064;4.580;2022-12-29T03:40:23;10.50;99.90
75262;DHT22;63859;51.064;4.580;2022-12-29T03:42:50;10.50;99.90
75262;DHT22;63859;51.064;4.580;2022-12-29T03:45:18;10.50;99.90
75262;DHT22;63859;51.064;4.580;2022-12-29T03:47:44;10.50;99.90
75262;DHT22;63859;51.064;4.580;2022-12-29T03:50:12;10.50;99.90
75262;DHT22;63859;51.064;4.580;2022-12-29T03:52:37;10.50;99.90
75262;DHT22;63859;51.064;4.580;2022-12-29T03:55:03;10.60;99.90
75262;DHT22;63859;51.064;4.580;2022-12-29T03:57:29;10.70;99.90
75262;DHT22;63859;51.064;4.580;2022-12-29T03:59:55;10.70;99.90
75262;DHT22;63859;51.064;4.580;2022-12-29T04:02:20;10.70;99.90
75262;DHT22;63859;51.064;4.580;2022-12-29T04:04:46;10.70;99.90
75262;DHT22;63859;51.064;4.580;2022-12-29T04:07:11;10.60;99.90
75262;DHT22;63859;51.064;4.580;2022-12-29T04:09:37;10.70;99.90
75262;DHT22;63859;51.064;4.580;2022-12-29T04:12:03;10.60;99.90
75262;DHT22;63859;51.064;4.580;2022-12-29T04:14:28;10.50;99.90
75262;DHT22;63859;51.064;4.580;2022-12-29T04:16:54;10.50;99.90
75262;DHT22;63859;51.064;4.580;2022-12-29T04:19:20;10.50;99.90
75262;DHT22;63859;51.064;4.580;2022-12-29T04:21:45;10.50;99.90
75262;DHT22;63859;51.064;4.580;2022-12-29T04:24:11;10.40;99.90
75262;DHT22;63859;51.064;4.580;2022-12-29T04:26:38;10.40;99.90
75262;DHT22;63859;51.064;4.580;2022-12-29T04:29:03;10.40;99.90
75262;DHT22;63859;51.064;4.580;2022-12-29T04:31:29;10.40;99.90
75262;DHT22;63859;51.064;4.580;2022-12-29T04:33:55;10.40;99.90
75262;DHT22;63859;51.064;4.580;2022-12-29T04:36:22;10.40;99.90
75262;DHT22;63859;51.064;4.580;2022-12-29T04:38:48;10.30;99.90
75262;DHT22;63859;51.064;4.580;2022-12-29T04:41:13;10.30;99.90
75262;DHT22;63859;51.064;4.580;2022-12-29T04:43:39;10.30;99.90
75262;DHT22;63859;51.064;4.580;2022-12-29T04:46:05;10.40;99.90
75262;DHT22;63859;51.064;4.580;2022-12-29T04:48:31;10.40;99.90
75262;DHT22;63859;51.064;4.580;2022-12-29T04:50:57;10.40;99.90
75262;DHT22;63859;51.064;4.580;2022-12-29T04:53:22;10.50;99.90
75262;DHT22;63859;51.064;4.580;2022-12-29T04:55:49;10.50;99.90
75262;DHT22;63859;51.064;4.580;2022-12-29T04:58:15;10.50;99.90
75262;DHT22;63859;51.064;4.580;2022-12-29T05:00:41;10.50;99.90
75262;DHT22;63859;51.064;4.580;2022-12-29T05:03:06;10.40;99.90
75262;DHT22;63859;51.064;4.580;2022-12-29T05:05:32;10.50;99.90
75262;DHT22;63859;51.064;4.580;2022-12-29T05:07:57;10.40;99.90
75262;DHT22;63859;51.064;4.580;2022-12-29T05:10:23;10.50;99.90
75262;DHT22;63859;51.064;4.580;2022-12-29T05:12:49;10.50;99.90
75262;DHT22;63859;51.064;4.580;2022-12-29T05:15:14;10.40;99.90
75262;DHT22;63859;51.064;4.580;2022-12-29T05:17:40;10.40;99.90
75262;DHT22;63859;51.064;4.580;2022-12-29T05:20:06;10.50;99.90
75262;DHT22;63859;51.064;4.580;2022-12-29T05:22:32;10.50;99.90
75262;DHT22;63859;51.064;4.580;2022-12-29T05:24:58;10.50;99.90
75262;DHT22;63859;51.064;4.580;2022-12-29T05:27:24;10.50;99.90
75262;DHT22;63859;51.064;4.580;2022-12-29T05:29:49;10.50;99.90
75262;DHT22;63859;51.064;4.580;2022-12-29T05:32:15;10.50;99.90
75262;DHT22;63859;51.064;4.580;2022-12-29T05:34:40;10.50;99.90
75262;DHT22;63859;51.064;4.580;2022-12-29T05:37:06;10.50;99.90
75262;DHT22;63859;51.064;4.580;2022-12-29T05:39:32;10.50;99.90
75262;DHT22;63859;51.064;4.580;2022-12-29T05:41:57;10.50;99.90
75262;DHT22;63859;51.064;4.580;2022-12-29T05:44:23;10.50;99.90
75262;DHT22;63859;51.064;4.580;2022-12-29T05:46:48;10.50;99.90
75262;DHT22;63859;51.064;4.580;2022-12-29T05:49:14;10.50;99.90
75262;DHT22;63859;51.064;4.580;2022-12-29T05:51:39;10.50;99.90
75262;DHT22;63859;51.064;4.580;2022-12-29T05:54:05;10.50;99.90
75262;DHT22;63859;51.064;4.580;2022-12-29T05:56:31;10.60;99.90
75262;DHT22;63859;51.064;4.580;2022-12-29T05:58:56;10.60;99.90
75262;DHT22;63859;51.064;4.580;2022-12-29T06:01:22;10.60;99.90
75262;DHT22;63859;51.064;4.580;2022-12-29T06:03:48;10.60;99.90
75262;DHT22;63859;51.064;4.580;2022-12-29T06:06:13;10.60;99.90
75262;DHT22;63859;51.064;4.580;2022-12-29T06:08:39;10.60;99.90
75262;DHT22;63859;51.064;4.580;2022-12-29T06:11:04;10.50;99.90
75262;DHT22;63859;51.064;4.580;2022-12-29T06:13:30;10.50;99.90
75262;DHT22;63859;51.064;4.580;2022-12-29T06:15:56;10.50;99.90
75262;DHT22;63859;51.064;4.580;2022-12-29T06:18:21;10.50;99.90
75262;DHT22;63859;51.064;4.580;2022-12-29T06:20:47;10.60;99.90
75262;DHT22;63859;51.064;4.580;2022-12-29T06:23:13;10.60;99.90
75262;DHT22;63859;51.064;4.580;2022-12-29T06:25:39;10.60;99.90
75262;DHT22;63859;51.064;4.580;2022-12-29T06:28:05;10.60;99.90
75262;DHT22;63859;51.064;4.580;2022-12-29T06:30:31;10.60;99.90
75262;DHT22;63859;51.064;4.580;2022-12-29T06:32:58;10.60;99.90
75262;DHT22;63859;51.064;4.580;2022-12-29T06:35:24;10.60;99.90
75262;DHT22;63859;51.064;4.580;2022-12-29T06:37:49;10.60;99.90
75262;DHT22;63859;51.064;4.580;2022-12-29T06:40:15;10.50;99.90
75262;DHT22;63859;51.064;4.580;2022-12-29T06:42:41;10.60;99.90
75262;DHT22;63859;51.064;4.580;2022-12-29T06:45:07;10.50;99.90
75262;DHT22;63859;51.064;4.580;2022-12-29T06:47:33;10.60;99.90
75262;DHT22;63859;51.064;4.580;2022-12-29T06:49:59;10.60;99.90
75262;DHT22;63859;51.064;4.580;2022-12-29T06:52:25;10.60;99.90
75262;DHT22;63859;51.064;4.580;2022-12-29T06:54:50;10.60;99.90
75262;DHT22;63859;51.064;4.580;2022-12-29T06:57:16;10.60;99.90
75262;DHT22;63859;51.064;4.580;2022-12-29T06:59:42;10.60;99.90
75262;DHT22;63859;51.064;4.580;2022-12-29T07:02:10;10.60;99.90
75262;DHT22;63859;51.064;4.580;2022-12-29T07:04:35;10.60;99.90
75262;DHT22;63859;51.064;4.580;2022-12-29T07:07:01;10.60;99.90
75262;DHT22;63859;51.064;4.580;2022-12-29T07:09:26;10.60;99.90
75262;DHT22;63859;51.064;4.580;2022-12-29T07:11:52;10.60;99.90
75262;DHT22;63859;51.064;4.580;2022-12-29T07:14:17;10.60;99.90
75262;DHT22;63859;51.064;4.580;2022-12-29T07:16:43;10.60;99.90
75262;DHT22;63859;51.064;4.580;2022-12-29T07:19:09;10.60;99.90
75262;DHT22;63859;51.064;4.580;2022-12-29T07:21:34;10.60;99.90
75262;DHT22;63859;51.064;4.580;2022-12-29T07:24:00;10.60;99.90
75262;DHT22;63859;51.064;4.580;2022-12-29T07:26:26;10.70;99.90
75262;DHT22;63859;51.064;4.580;2022-12-29T07:28:51;10.60;99.90
75262;DHT22;63859;51.064;4.580;2022-12-29T07:31:21;10.60;99.90
75262;DHT22;63859;51.064;4.580;2022-12-29T07:33:47;10.70;99.90
75262;DHT22;63859;51.064;4.580;2022-12-29T07:36:14;10.70;99.90
75262;DHT22;63859;51.064;4.580;2022-12-29T07:38:40;10.70;99.90
75262;DHT22;63859;51.064;4.580;2022-12-29T07:41:06;10.70;99.90
75262;DHT22;63859;51.064;4.580;2022-12-29T07:43:32;10.60;99.90
75262;DHT22;63859;51.064;4.580;2022-12-29T07:45:57;10.60;99.90
75262;DHT22;63859;51.064;4.580;2022-12-29T07:48:23;10.60;99.90
75262;DHT22;63859;51.064;4.580;2022-12-29T07:50:49;10.60;99.90
75262;DHT22;63859;51.064;4.580;2022-12-29T07:53:15;10.60;99.90
75262;DHT22;63859;51.064;4.580;2022-12-29T07:55:40;10.70;99.90
75262;DHT22;63859;51.064;4.580;2022-12-29T07:58:06;10.70;99.90
75262;DHT22;63859;51.064;4.580;2022-12-29T08:00:33;10.70;99.90
75262;DHT22;63859;51.064;4.580;2022-12-29T08:02:58;10.70;99.90
75262;DHT22;63859;51.064;4.580;2022-12-29T08:05:24;10.70;99.90
75262;DHT22;63859;51.064;4.580;2022-12-29T08:07:49;10.70;99.90
75262;DHT22;63859;51.064;4.580;2022-12-29T08:10:16;10.70;99.90
75262;DHT22;63859;51.064;4.580;2022-12-29T08:12:42;10.70;99.90
75262;DHT22;63859;51.064;4.580;2022-12-29T08:15:10;10.70;99.90
75262;DHT22;63859;51.064;4.580;2022-12-29T08:17:36;10.70;99.90
75262;DHT22;63859;51.064;4.580;2022-12-29T08:20:02;10.80;99.90
75262;DHT22;63859;51.064;4.580;2022-12-29T08:22:28;10.70;99.90
75262;DHT22;63859;51.064;4.580;2022-12-29T08:24:53;10.70;99.90
75262;DHT22;63859;51.064;4.580;2022-12-29T08:27:19;10.70;99.90
75262;DHT22;63859;51.064;4.580;2022-12-29T08:29:45;10.70;99.90
75262;DHT22;63859;51.064;4.580;2022-12-29T08:32:11;10.70;99.90
75262;DHT22;63859;51.064;4.580;2022-12-29T08:34:37;10.70;99.90
75262;DHT22;63859;51.064;4.580;2022-12-29T08:37:02;10.70;99.90
75262;DHT22;63859;51.064;4.580;2022-12-29T08:39:28;10.70;99.90
75262;DHT22;63859;51.064;4.580;2022-12-29T08:41:54;10.70;99.90
75262;DHT22;63859;51.064;4.580;2022-12-29T08:44:20;10.70;99.90
75262;DHT22;63859;51.064;4.580;2022-12-29T08:46:45;10.70;99.90
75262;DHT22;63859;51.064;4.580;2022-12-29T08:49:11;10.70;99.90
75262;DHT22;63859;51.064;4.580;2022-12-29T08:51:37;10.70;99.90
75262;DHT22;63859;51.064;4.580;2022-12-29T08:54:02;10.70;99.90
75262;DHT22;63859;51.064;4.580;2022-12-29T08:56:28;10.70;99.90
75262;DHT22;63859;51.064;4.580;2022-12-29T08:58:54;10.80;99.90
75262;DHT22;63859;51.064;4.580;2022-12-29T09:01:20;10.80;99.90
75262;DHT22;63859;51.064;4.580;2022-12-29T09:03:46;10.70;99.90
75262;DHT22;63859;51.064;4.580;2022-12-29T09:06:13;10.60;99.90
75262;DHT22;63859;51.064;4.580;2022-12-29T09:08:39;10.60;99.90
75262;DHT22;63859;51.064;4.580;2022-12-29T09:11:24;10.50;99.90
75262;DHT22;63859;51.064;4.580;2022-12-29T09:13:50;10.50;99.90
75262;DHT22;63859;51.064;4.580;2022-12-29T09:16:17;10.40;99.90
75262;DHT22;63859;51.064;4.580;2022-12-29T09:18:43;10.30;99.90
75262;DHT22;63859;51.064;4.580;2022-12-29T09:21:10;10.30;99.90
75262;DHT22;63859;51.064;4.580;2022-12-29T09:23:36;10.30;99.90
75262;DHT22;63859;51.064;4.580;2022-12-29T09:26:02;10.20;99.90
75262;DHT22;63859;51.064;4.580;2022-12-29T09:28:28;10.30;99.90
75262;DHT22;63859;51.064;4.580;2022-12-29T09:30:55;10.10;99.90
75262;DHT22;63859;51.064;4.580;2022-12-29T09:33:21;10.20;99.90
75262;DHT22;63859;51.064;4.580;2022-12-29T09:35:57;10.20;99.90
75262;DHT22;63859;51.064;4.580;2022-12-29T09:38:24;10.10;99.90
75262;DHT22;63859;51.064;4.580;2022-12-29T09:41:01;10.10;99.90
75262;DHT22;63859;51.064;4.580;2022-12-29T09:48:36;10.00;99.90
75262;DHT22;63859;51.064;4.580;2022-12-29T09:51:08;9.90;99.90
75262;DHT22;63859;51.064;4.580;2022-12-29T09:53:44;9.90;99.90
75262;DHT22;63859;51.064;4.580;2022-12-29T09:56:16;9.90;99.90
75262;DHT22;63859;51.064;4.580;2022-12-29T09:59:11;9.90;99.90
75262;DHT22;63859;51.064;4.580;2022-12-29T10:04:11;10.00;99.90
75262;DHT22;63859;51.064;4.580;2022-12-29T10:06:51;10.00;99.90
75262;DHT22;63859;51.064;4.580;2022-12-29T10:17:37;9.80;99.90
75262;DHT22;63859;51.064;4.580;2022-12-29T10:20:31;9.90;99.90
75262;DHT22;63859;51.064;4.580;2022-12-29T10:25:32;10.00;99.90
75262;DHT22;63859;51.064;4.580;2022-12-29T10:28:05;10.00;99.90
75262;DHT22;63859;51.064;4.580;2022-12-29T10:30:33;10.00;99.90
75262;DHT22;63859;51.064;4.580;2022-12-29T10:33:02;10.10;99.90
75262;DHT22;63859;51.064;4.580;2022-12-29T10:35:38;10.10;99.90
75262;DHT22;63859;51.064;4.580;2022-12-29T10:38:29;10.20;99.90
75262;DHT22;63859;51.064;4.580;2022-12-29T10:41:15;10.20;99.90
75262;DHT22;63859;51.064;4.580;2022-12-29T10:43:47;10.20;99.90
75262;DHT22;63859;51.064;4.580;2022-12-29T10:46:18;10.30;99.90
75262;DHT22;63859;51.064;4.580;2022-12-29T10:48:44;10.30;99.90
75262;DHT22;63859;51.064;4.580;2022-12-29T10:51:22;10.40;99.90
75262;DHT22;63859;51.064;4.580;2022-12-29T10:53:54;10.40;99.90
75262;DHT22;63859;51.064;4.580;2022-12-29T10:58:51;10.60;99.90
75262;DHT22;63859;51.064;4.580;2022-12-29T11:01:20;10.70;99.90
75262;DHT22;63859;51.064;4.580;2022-12-29T11:03:48;10.70;99.90
75262;DHT22;63859;51.064;4.580;2022-12-29T11:06:23;10.70;99.90
75262;DHT22;63859;51.064;4.580;2022-12-29T11:08:57;10.70;99.90
75262;DHT22;63859;51.064;4.580;2022-12-29T11:11:28;10.70;99.90
75262;DHT22;63859;51.064;4.580;2022-12-29T11:14:17;10.70;99.90
75262;DHT22;63859;51.064;4.580;2022-12-29T11:16:43;10.70;99.90
75262;DHT22;63859;51.064;4.580;2022-12-29T11:19:21;10.70;99.90
75262;DHT22;63859;51.064;4.580;2022-12-29T11:21:48;10.80;99.90
75262;DHT22;63859;51.064;4.580;2022-12-29T11:24:28;10.80;99.90
75262;DHT22;63859;51.064;4.580;2022-12-29T11:27:16;10.80;99.90
75262;DHT22;63859;51.064;4.580;2022-12-29T11:29:43;10.80;99.90
75262;DHT22;63859;51.064;4.580;2022-12-29T11:32:21;10.80;99.90
75262;DHT22;63859;51.064;4.580;2022-12-29T11:34:48;10.80;99.90
75262;DHT22;63859;51.064;4.580;2022-12-29T11:42:17;10.80;99.90
75262;DHT22;63859;51.064;4.580;2022-12-29T11:44:48;10.70;99.90
75262;DHT22;63859;51.064;4.580;2022-12-29T11:47:28;10.70;99.90
75262;DHT22;63859;51.064;4.580;2022-12-29T11:50:00;10.70;99.90
75262;DHT22;63859;51.064;4.580;2022-12-29T11:52:29;10.70;99.90
75262;DHT22;63859;51.064;4.580;2022-12-29T11:55:00;10.70;99.90
75262;DHT22;63859;51.064;4.580;2022-12-29T11:57:27;10.70;99.90
75262;DHT22;63859;51.064;4.580;2022-12-29T11:59:54;10.70;99.90
75262;DHT22;63859;51.064;4.580;2022-12-29T12:02:37;10.70;99.90
75262;DHT22;63859;51.064;4.580;2022-12-29T12:05:25;10.70;99.90
75262;DHT22;63859;51.064;4.580;2022-12-29T12:08:01;10.60;99.90
75262;DHT22;63859;51.064;4.580;2022-12-29T12:11:07;10.60;99.90
75262;DHT22;63859;51.064;4.580;2022-12-29T12:13:43;10.50;99.90
75262;DHT22;63859;51.064;4.580;2022-12-29T12:16:17;10.50;99.90
75262;DHT22;63859;51.064;4.580;2022-12-29T12:18:56;10.40;99.90
75262;DHT22;63859;51.064;4.580;2022-12-29T12:21:41;10.50;99.90
75262;DHT22;63859;51.064;4.580;2022-12-29T12:35:16;10.50;99.90
75262;DHT22;63859;51.064;4.580;2022-12-29T13:02:27;10.10;99.90
75262;DHT22;63859;51.064;4.580;2022-12-29T13:05:16;10.10;99.90
75262;DHT22;63859;51.064;4.580;2022-12-29T13:13:15;10.30;99.90
75262;DHT22;63859;51.064;4.580;2022-12-29T13:29:42;10.30;99.90
75262;DHT22;63859;51.064;4.580;2022-12-29T13:32:28;10.40;99.90
75262;DHT22;63859;51.064;4.580;2022-12-29T13:38:09;10.40;99.90
75262;DHT22;63859;51.064;4.580;2022-12-29T13:40:40;10.40;99.90
75262;DHT22;63859;51.064;4.580;2022-12-29T13:43:07;10.40;99.90
75262;DHT22;63859;51.064;4.580;2022-12-29T13:45:34;10.40;99.90
75262;DHT22;63859;51.064;4.580;2022-12-29T13:48:07;10.30;99.90
75262;DHT22;63859;51.064;4.580;2022-12-29T13:50:38;10.30;99.90
75262;DHT22;63859;51.064;4.580;2022-12-29T13:53:13;10.40;99.90
75262;DHT22;63859;51.064;4.580;2022-12-29T14:01:13;10.40;99.90
75262;DHT22;63859;51.064;4.580;2022-12-29T14:03:55;10.40;99.90
75262;DHT22;63859;51.064;4.580;2022-12-29T14:06:28;10.40;99.90
75262;DHT22;63859;51.064;4.580;2022-12-29T14:09:00;10.40;99.90
75262;DHT22;63859;51.064;4.580;2022-12-29T14:11:32;10.40;99.90
75262;DHT22;63859;51.064;4.580;2022-12-29T14:14:00;10.30;99.90
75262;DHT22;63859;51.064;4.580;2022-12-29T14:16:36;10.30;99.90
75262;DHT22;63859;51.064;4.580;2022-12-29T14:21:51;10.10;99.90
75262;DHT22;63859;51.064;4.580;2022-12-29T14:31:56;9.60;99.90
75262;DHT22;63859;51.064;4.580;2022-12-29T14:34:36;9.40;99.90
75262;DHT22;63859;51.064;4.580;2022-12-29T14:37:03;9.30;99.90
75262;DHT22;63859;51.064;4.580;2022-12-29T14:39:42;9.20;99.90
75262;DHT22;63859;51.064;4.580;2022-12-29T14:44:52;9.00;99.90
75262;DHT22;63859;51.064;4.580;2022-12-29T14:47:33;8.90;99.90
75262;DHT22;63859;51.064;4.580;2022-12-29T14:50:11;8.80;99.90
75262;DHT22;63859;51.064;4.580;2022-12-29T14:52:56;8.70;99.90
75262;DHT22;63859;51.064;4.580;2022-12-29T14:55:41;8.60;99.90
75262;DHT22;63859;51.064;4.580;2022-12-29T14:58:33;8.60;99.90
75262;DHT22;63859;51.064;4.580;2022-12-29T15:01:01;8.50;99.90
75262;DHT22;63859;51.064;4.580;2022-12-29T15:03:32;8.50;99.90
75262;DHT22;63859;51.064;4.580;2022-12-29T15:08:35;8.50;99.90
75262;DHT22;63859;51.064;4.580;2022-12-29T15:11:13;8.50;99.90
75262;DHT22;63859;51.064;4.580;2022-12-29T15:13:41;8.50;99.90
75262;DHT22;63859;51.064;4.580;2022-12-29T15:16:29;8.50;99.90
75262;DHT22;63859;51.064;4.580;2022-12-29T15:18:55;8.50;99.90
75262;DHT22;63859;51.064;4.580;2022-12-29T15:21:34;8.40;99.90
75262;DHT22;63859;51.064;4.580;2022-12-29T15:24:02;8.40;99.90
75262;DHT22;63859;51.064;4.580;2022-12-29T15:26:42;8.50;99.90
75262;DHT22;63859;51.064;4.580;2022-12-29T15:29:34;8.40;99.90
75262;DHT22;63859;51.064;4.580;2022-12-29T15:32:14;8.40;99.90
75262;DHT22;63859;51.064;4.580;2022-12-29T15:34:44;8.40;99.90
75262;DHT22;63859;51.064;4.580;2022-12-29T15:37:18;8.40;99.90
75262;DHT22;63859;51.064;4.580;2022-12-29T15:39:44;8.40;99.90
75262;DHT22;63859;51.064;4.580;2022-12-29T15:45:04;8.40;99.90
75262;DHT22;63859;51.064;4.580;2022-12-29T15:47:31;8.30;99.90
75262;DHT22;63859;51.064;4.580;2022-12-29T15:50:21;8.30;99.90
75262;DHT22;63859;51.064;4.580;2022-12-29T15:52:48;8.20;99.90
75262;DHT22;63859;51.064;4.580;2022-12-29T15:55:24;8.30;99.90
75262;DHT22;63859;51.064;4.580;2022-12-29T15:57:56;8.20;99.90
75262;DHT22;63859;51.064;4.580;2022-12-29T16:00:25;8.20;99.90
75262;DHT22;63859;51.064;4.580;2022-12-29T16:02:53;8.20;99.90
75262;DHT22;63859;51.064;4.580;2022-12-29T16:05:19;8.20;99.90
75262;DHT22;63859;51.064;4.580;2022-12-29T16:07:56;8.20;99.90
75262;DHT22;63859;51.064;4.580;2022-12-29T16:10:27;8.20;99.90
75262;DHT22;63859;51.064;4.580;2022-12-29T16:13:05;8.20;99.90
75262;DHT22;63859;51.064;4.580;2022-12-29T16:15:37;8.20;99.90
75262;DHT22;63859;51.064;4.580;2022-12-29T16:18:03;8.20;99.90
75262;DHT22;63859;51.064;4.580;2022-12-29T16:20:39;8.20;99.90
75262;DHT22;63859;51.064;4.580;2022-12-29T16:23:16;8.20;99.90
75262;DHT22;63859;51.064;4.580;2022-12-29T16:25:43;8.20;99.90
75262;DHT22;63859;51.064;4.580;2022-12-29T16:28:21;8.20;99.90
75262;DHT22;63859;51.064;4.580;2022-12-29T16:30:58;8.20;99.90
75262;DHT22;63859;51.064;4.580;2022-12-29T16:33:44;8.20;99.90
75262;DHT22;63859;51.064;4.580;2022-12-29T16:36:34;8.20;99.90
75262;DHT22;63859;51.064;4.580;2022-12-29T16:41:54;8.10;99.90
75262;DHT22;63859;51.064;4.580;2022-12-29T16:44:26;8.20;99.90
75262;DHT22;63859;51.064;4.580;2022-12-29T16:49:21;8.10;99.90
75262;DHT22;63859;51.064;4.580;2022-12-29T16:51:47;8.20;99.90
75262;DHT22;63859;51.064;4.580;2022-12-29T16:54:32;8.10;99.90
75262;DHT22;63859;51.064;4.580;2022-12-29T16:56:59;8.10;99.90
75262;DHT22;63859;51.064;4.580;2022-12-29T16:59:36;8.00;99.90
75262;DHT22;63859;51.064;4.580;2022-12-29T17:02:12;8.00;99.90
75262;DHT22;63859;51.064;4.580;2022-12-29T17:04:39;8.00;99.90
75262;DHT22;63859;51.064;4.580;2022-12-29T17:07:16;8.00;99.90
75262;DHT22;63859;51.064;4.580;2022-12-29T17:09:42;8.00;99.90
75262;DHT22;63859;51.064;4.580;2022-12-29T17:12:44;8.00;99.90
75262;DHT22;63859;51.064;4.580;2022-12-29T17:15:11;7.90;99.90
75262;DHT22;63859;51.064;4.580;2022-12-29T17:22:39;7.90;99.90
75262;DHT22;63859;51.064;4.580;2022-12-29T17:25:05;7.90;99.90
75262;DHT22;63859;51.064;4.580;2022-12-29T17:27:52;7.90;99.90
75262;DHT22;63859;51.064;4.580;2022-12-29T17:30:21;7.80;99.90
75262;DHT22;63859;51.064;4.580;2022-12-29T17:33:00;7.90;99.90
75262;DHT22;63859;51.064;4.580;2022-12-29T17:35:27;7.90;99.90
75262;DHT22;63859;51.064;4.580;2022-12-29T17:37:53;7.90;99.90
75262;DHT22;63859;51.064;4.580;2022-12-29T17:40:21;7.90;99.90
75262;DHT22;63859;51.064;4.580;2022-12-29T17:42:51;8.00;99.90
75262;DHT22;63859;51.064;4.580;2022-12-29T17:45:20;7.90;99.90
75262;DHT22;63859;51.064;4.580;2022-12-29T17:47:46;8.00;99.90
75262;DHT22;63859;51.064;4.580;2022-12-29T17:50:23;8.00;99.90
75262;DHT22;63859;51.064;4.580;2022-12-29T17:52:55;8.00;99.90
75262;DHT22;63859;51.064;4.580;2022-12-29T17:55:24;8.00;99.90
75262;DHT22;63859;51.064;4.580;2022-12-29T17:57:50;8.00;99.90
75262;DHT22;63859;51.064;4.580;2022-12-29T18:00:19;8.00;99.90
75262;DHT22;63859;51.064;4.580;2022-12-29T18:02:46;8.00;99.90
75262;DHT22;63859;51.064;4.580;2022-12-29T18:05:19;8.00;99.90
75262;DHT22;63859;51.064;4.580;2022-12-29T18:07:45;8.00;99.90
75262;DHT22;63859;51.064;4.580;2022-12-29T18:10:12;8.10;99.90
75262;DHT22;63859;51.064;4.580;2022-12-29T18:12:39;8.10;99.90
75262;DHT22;63859;51.064;4.580;2022-12-29T18:15:09;8.00;99.90
75262;DHT22;63859;51.064;4.580;2022-12-29T18:17:40;8.00;99.90
75262;DHT22;63859;51.064;4.580;2022-12-29T18:20:06;8.00;99.90
75262;DHT22;63859;51.064;4.580;2022-12-29T18:22:32;8.00;99.90
75262;DHT22;63859;51.064;4.580;2022-12-29T18:24:58;8.00;99.90
75262;DHT22;63859;51.064;4.580;2022-12-29T18:27:24;8.00;99.90